createdAt,value
2022-09-09T00:05:00.618Z,46.76
2022-09-09T00:10:01.564Z,45.89
2022-09-09T00:15:02.214Z,46.44
2022-09-09T00:20:02.763Z,46.75
2022-09-09T00:25:03.609Z,47.48
2022-09-09T00:30:13.521Z,47.56
2022-09-09T00:35:16.381Z,47.10
2022-09-09T00:40:19.405Z,47.04
2022-09-09T00:45:25.699Z,46.36
2022-09-09T00:50:36.403Z,45.75
2022-09-09T00:55:39.324Z,45.67
2022-09-09T01:00:41.382Z,44.63
2022-09-09T01:05:42.851Z,44.97
2022-09-09T01:10:46.716Z,44.90
2022-09-09T01:15:46.958Z,44.77
2022-09-09T01:20:48.012Z,44.86
2022-09-09T01:26:02.745Z,44.66
2022-09-09T01:31:01.442Z,44.75
2022-09-09T01:36:06.807Z,45.66
2022-09-09T01:41:09.447Z,45.14
2022-09-09T01:46:26.379Z,45.21
2022-09-09T01:51:23.929Z,44.32
2022-09-09T01:56:27.068Z,44.19
2022-09-09T02:01:30.036Z,43.88
2022-09-09T02:06:31.604Z,42.60
2022-09-09T02:11:37.645Z,43.11
2022-09-09T02:16:57.556Z,42.88
2022-09-09T02:22:02.177Z,43.50
2022-09-09T02:27:01.027Z,43.56
2022-09-09T02:31:59.561Z,42.87
2022-09-09T02:37:03.050Z,43.14
2022-09-09T02:42:00.166Z,44.29
2022-09-09T02:47:11.090Z,45.73
2022-09-09T02:52:09.787Z,44.89
2022-09-09T02:57:11.542Z,43.64
2022-09-09T03:02:11.976Z,43.81
2022-09-09T03:07:09.956Z,43.15
2022-09-09T03:12:07.574Z,42.82
2022-09-09T03:17:05.619Z,41.45
2022-09-09T03:22:07.448Z,42.53
2022-09-09T03:27:07.582Z,42.88
2022-09-09T03:32:06.998Z,42.97
2022-09-09T03:37:03.886Z,45.02
2022-09-09T03:42:19.790Z,45.05
2022-09-09T03:47:20.130Z,46.55
2022-09-09T03:52:19.397Z,46.45
2022-09-09T03:57:22.733Z,45.49
2022-09-09T04:02:21.889Z,44.19
2022-09-09T04:07:18.610Z,46.53
2022-09-09T04:12:17.052Z,47.05
2022-09-09T04:17:17.745Z,46.92
2022-09-09T04:22:14.613Z,47.65
2022-09-09T04:27:11.293Z,48.45
2022-09-09T04:32:08.101Z,49.89
2022-09-09T04:37:05.732Z,50.20
2022-09-09T04:42:02.566Z,50.12
2022-09-09T04:46:59.407Z,49.49
2022-09-09T04:51:56.705Z,49.32
2022-09-09T04:56:55.353Z,46.76
2022-09-09T05:01:52.205Z,45.30
2022-09-09T05:06:49.234Z,46.79
2022-09-09T05:11:46.930Z,43.31
2022-09-09T05:17:16.804Z,42.80
2022-09-09T05:22:14.597Z,43.27
2022-09-09T05:27:15.586Z,45.49
2022-09-09T05:32:15.587Z,45.80
2022-09-09T05:37:15.002Z,45.91
2022-09-09T05:42:15.536Z,45.87
2022-09-09T05:47:12.346Z,44.30
2022-09-09T05:52:10.292Z,43.84
2022-09-09T05:57:07.961Z,43.51
2022-09-09T06:02:05.135Z,43.24
2022-09-09T06:07:06.606Z,43.32
2022-09-09T06:12:03.793Z,42.92
2022-09-09T06:17:08.429Z,43.13
2022-09-09T06:22:06.637Z,41.33
2022-09-09T06:27:07.141Z,41.12
2022-09-09T06:32:08.990Z,44.10
2022-09-09T06:37:07.109Z,44.19
2022-09-09T06:42:09.974Z,43.88
2022-09-09T06:47:25.870Z,40.33
2022-09-09T06:52:26.738Z,41.98
2022-09-09T06:57:41.080Z,43.55
2022-09-09T07:02:48.764Z,43.39
2022-09-09T07:07:46.996Z,42.82
2022-09-09T07:12:52.208Z,40.79
2022-09-09T07:17:50.704Z,40.95
2022-09-09T07:22:48.426Z,41.44
2022-09-09T07:27:45.364Z,41.07
2022-09-09T07:32:43.186Z,41.18
2022-09-09T07:37:41.705Z,41.26
2022-09-09T07:42:38.940Z,40.83
2022-09-09T07:47:36.126Z,40.69
2022-09-09T07:52:35.970Z,40.16
2022-09-09T07:57:36.575Z,39.58
2022-09-09T08:02:34.683Z,39.86
2022-09-09T08:07:32.046Z,37.95
2022-09-09T08:12:31.159Z,38.92
2022-09-09T08:17:30.566Z,39.62
2022-09-09T08:22:30.724Z,39.37
2022-09-09T08:27:27.565Z,38.57
2022-09-09T08:32:26.888Z,38.52
2022-09-09T08:37:24.990Z,38.91
2022-09-09T08:42:30.468Z,38.69
2022-09-09T08:47:35.633Z,39.21
2022-09-09T08:52:40.478Z,38.52
2022-09-09T08:57:37.736Z,39.27
2022-09-09T09:02:40.539Z,38.58
2022-09-09T09:07:51.738Z,38.69
2022-09-09T09:12:54.137Z,38.73
2022-09-09T09:17:53.191Z,39.04
2022-09-09T09:22:56.602Z,38.66
2022-09-09T09:27:59.321Z,39.74
2022-09-09T09:33:00.000Z,39.60
2022-09-09T09:43:20.707Z,38.57
2022-09-09T09:48:18.901Z,38.16
2022-09-09T09:53:22.239Z,38.40
2022-09-09T09:58:20.895Z,38.33
2022-09-09T10:03:23.585Z,36.96
2022-09-09T10:08:23.132Z,36.20
2022-09-09T10:13:22.117Z,36.69
2022-09-09T10:18:39.874Z,36.65
2022-09-09T10:23:47.376Z,36.44
2022-09-09T10:29:00.234Z,36.30
2022-09-09T10:34:01.498Z,36.30
2022-09-09T10:39:00.732Z,36.18
2022-09-09T10:44:05.546Z,35.81
2022-09-09T10:49:08.241Z,35.97
2022-09-09T10:54:15.765Z,35.79
2022-09-09T10:59:14.675Z,35.87
2022-09-09T11:04:16.963Z,35.61
2022-09-09T11:09:17.505Z,35.23
2022-09-09T11:14:20.989Z,35.38
2022-09-09T11:19:22.355Z,35.18
2022-09-09T11:24:25.568Z,34.47
2022-09-09T11:29:31.607Z,33.75
2022-09-09T11:39:48.543Z,34.29
2022-09-09T11:44:45.587Z,34.82
2022-09-09T11:49:43.209Z,34.90
2022-09-09T11:54:47.754Z,35.21
2022-09-09T11:59:52.522Z,34.97
2022-09-09T12:04:55.186Z,34.89
2022-09-09T12:09:56.984Z,34.32
2022-09-09T12:15:18.296Z,35.07
2022-09-09T12:20:16.512Z,34.85
2022-09-09T12:25:23.176Z,34.51
2022-09-09T12:30:22.064Z,34.57
2022-09-09T12:35:23.428Z,34.39
2022-09-09T12:40:22.738Z,33.68
2022-09-09T12:45:20.833Z,33.90
2022-09-09T12:50:21.967Z,33.72
2022-09-09T12:55:20.085Z,34.04
2022-09-09T13:00:19.512Z,34.46
2022-09-09T13:05:17.848Z,34.57
2022-09-09T13:10:21.466Z,34.97
2022-09-09T13:15:29.156Z,33.97
2022-09-09T13:20:26.036Z,33.27
2022-09-09T13:25:26.118Z,33.47
2022-09-09T13:30:24.211Z,33.40
2022-09-09T13:35:24.767Z,32.82
2022-09-09T13:40:24.121Z,33.37
2022-09-09T13:45:21.808Z,33.56
2022-09-09T13:50:21.755Z,33.72
2022-09-09T13:55:19.491Z,33.05
2022-09-09T14:00:16.620Z,33.47
2022-09-09T14:05:13.395Z,33.41
2022-09-09T14:10:10.071Z,33.68
2022-09-09T14:15:08.905Z,34.12
2022-09-09T14:20:09.655Z,35.46
2022-09-09T14:25:06.916Z,35.90
2022-09-09T14:30:05.020Z,35.53
2022-09-09T14:35:02.607Z,35.34
2022-09-09T14:40:00.237Z,35.46
2022-09-09T14:44:57.199Z,35.56
2022-09-09T14:49:53.894Z,35.84
2022-09-09T14:54:51.637Z,36.07
2022-09-09T14:59:50.815Z,36.01
2022-09-09T15:04:50.267Z,35.59
2022-09-09T15:09:49.134Z,36.30
2022-09-09T15:14:46.624Z,36.47
2022-09-09T15:19:43.403Z,37.44
2022-09-09T15:24:42.545Z,39.29
2022-09-09T15:29:39.345Z,39.72
2022-09-09T15:34:36.809Z,39.58
2022-09-09T15:39:38.165Z,39.04
2022-09-09T15:44:42.880Z,39.39
2022-09-09T15:49:41.213Z,39.34
2022-09-09T15:54:39.249Z,39.32
2022-09-09T15:59:36.028Z,39.74
2022-09-09T16:04:34.429Z,40.42
2022-09-09T16:09:33.434Z,40.69
2022-09-09T16:14:34.518Z,41.18
2022-09-09T16:19:41.729Z,41.13
2022-09-09T16:24:39.260Z,42.25
2022-09-09T16:29:36.061Z,42.45
2022-09-09T16:34:34.055Z,42.81
2022-09-09T16:39:30.862Z,42.15
2022-09-09T16:44:28.276Z,41.75
2022-09-09T16:49:26.169Z,41.48
2022-09-09T16:54:27.461Z,41.24
2022-09-09T17:11:00.640Z,40.69
2022-09-09T17:16:05.922Z,40.57
2022-09-09T17:21:04.879Z,40.96
2022-09-09T17:26:01.630Z,41.06
2022-09-09T17:31:06.648Z,40.92
2022-09-09T17:36:09.493Z,46.49
2022-09-09T17:41:32.687Z,44.74
2022-09-09T17:46:35.662Z,42.87
2022-09-09T17:51:34.150Z,42.06
2022-09-09T17:56:32.068Z,41.82
2022-09-09T18:01:48.792Z,42.18
2022-09-09T18:06:49.437Z,47.92
2022-09-09T18:11:47.077Z,49.70
2022-09-09T18:16:44.212Z,46.17
2022-09-09T18:21:41.782Z,44.52
2022-09-09T18:26:46.376Z,44.34
2022-09-09T18:31:43.218Z,44.49
2022-09-09T18:36:41.924Z,44.40
2022-09-09T18:41:39.608Z,44.89
2022-09-09T18:46:42.274Z,45.19
2022-09-09T18:51:42.242Z,45.03
2022-09-09T18:56:39.370Z,44.74
2022-09-09T19:01:36.096Z,45.61
2022-09-09T19:06:34.243Z,45.75
2022-09-09T19:11:31.036Z,45.54
2022-09-09T19:16:28.984Z,45.85
2022-09-09T19:21:45.841Z,45.50
2022-09-09T19:26:43.491Z,45.66
2022-09-09T19:31:41.539Z,46.01
2022-09-09T19:36:46.733Z,46.94
2022-09-09T19:41:44.149Z,46.72
2022-09-09T19:46:42.308Z,46.94
2022-09-09T19:51:38.950Z,47.08
2022-09-09T19:56:37.119Z,46.95
2022-09-09T20:01:39.918Z,47.77
2022-09-09T20:06:39.940Z,47.71
2022-09-09T20:11:37.899Z,47.36
2022-09-09T20:16:35.533Z,46.77
2022-09-09T20:21:38.802Z,47.26
2022-09-09T20:26:37.893Z,47.80
2022-09-09T20:31:48.965Z,48.47
2022-09-09T20:36:49.770Z,48.44
2022-09-09T20:41:48.203Z,49.43
2022-09-09T20:47:00.317Z,49.34
2022-09-09T20:52:03.543Z,49.95
2022-09-09T20:57:03.928Z,50.38
2022-09-09T21:02:02.931Z,52.69
2022-09-09T21:07:26.892Z,53.32
2022-09-09T21:12:23.831Z,54.53
2022-09-09T21:17:27.949Z,55.15
2022-09-09T21:22:30.592Z,54.84
2022-09-09T21:27:35.348Z,54.82
2022-09-09T21:32:41.947Z,54.86
2022-09-09T21:37:38.884Z,53.08
2022-09-09T21:42:35.694Z,53.58
2022-09-09T21:47:33.084Z,52.82
2022-09-09T21:52:32.329Z,52.04
2022-09-09T21:57:29.053Z,51.43
2022-09-09T22:02:27.576Z,51.06
2022-09-09T22:07:25.153Z,51.26
2022-09-09T22:12:21.965Z,51.15
2022-09-09T22:17:23.944Z,50.81
2022-09-09T22:22:20.781Z,51.45
2022-09-09T22:27:18.349Z,53.15
2022-09-09T22:32:15.271Z,52.77
2022-09-09T22:37:12.433Z,52.64
2022-09-09T22:42:09.172Z,52.06
2022-09-09T22:47:06.653Z,53.35
2022-09-09T22:52:03.349Z,54.20
2022-09-09T22:57:00.124Z,53.57
2022-09-09T23:01:58.190Z,52.70
2022-09-09T23:06:55.603Z,52.47
2022-09-09T23:11:53.388Z,51.56
2022-09-09T23:16:52.011Z,50.92
2022-09-09T23:21:50.249Z,50.43
2022-09-09T23:26:47.766Z,49.95
2022-09-09T23:31:45.355Z,50.68
2022-09-09T23:36:42.287Z,50.80
2022-09-09T23:41:39.704Z,50.78
2022-09-09T23:46:37.173Z,50.76
2022-09-09T23:51:34.861Z,50.58
2022-09-09T23:56:32.324Z,50.18
